Time;durP1;ratioP1;P1;durP2;ratioP2;P2;SDS_P1;SDS_P2;PMS_P1;PMS_P2;Temp;Humidity;BMP_temperature;BMP_pressure;BME280_temperature;BME280_humidity;BME280_pressure;Samples;Min_cycle;Max_cycle;Signal;HPM_P1;HPM_P2
2021/11/12 00:02:17;;;;;;;0.70;0.70;;;;;;;7.18;66.73;101213.38;6049178;29;20282;-73
2021/11/12 00:15:28;;;;;;;0.60;0.60;;;;;;;7.16;67.38;101230.88;6047743;29;20217;-74
2021/11/12 00:18:35;;;;;;;0.73;0.73;;;;;;;7.21;66.87;101237.44;6048540;29;20195;-73
2021/11/12 00:21:40;;;;;;;0.80;0.80;;;;;;;7.24;66.51;101239.75;6048396;29;20197;-73
2021/11/12 00:24:44;;;;;;;0.60;0.60;;;;;;;7.13;66.24;101248.38;6047262;29;20493;-73
2021/11/12 00:27:48;;;;;;;0.67;0.67;;;;;;;7.09;65.91;101247.03;6047163;29;20418;-73
2021/11/12 00:30:59;;;;;;;1.93;0.80;;;;;;;7.12;66.34;101243.94;6047782;29;20198;-73
2021/11/12 00:37:55;;;;;;;1.45;0.68;;;;;;;6.99;66.38;101262.72;6385203;27;20277;-72
2021/11/12 00:41:01;;;;;;;0.63;0.57;;;;;;;7.00;66.49;101264.41;6358578;28;20394;-73
2021/11/12 00:44:14;;;;;;;0.70;0.70;;;;;;;7.02;66.07;101262.38;6359740;28;20204;-73
2021/11/12 00:47:22;;;;;;;0.70;0.70;;;;;;;7.03;65.88;101261.34;6359287;28;20218;-73
2021/11/12 00:50:34;;;;;;;0.50;0.50;;;;;;;6.85;65.37;101258.13;6359517;28;20222;-73
2021/11/12 00:53:48;;;;;;;0.90;0.90;;;;;;;6.96;66.01;101263.09;6359480;28;20287;-74
2021/11/12 00:56:53;;;;;;;1.20;0.80;;;;;;;7.00;66.15;101259.00;6357869;28;20443;-73
2021/11/12 00:59:58;;;;;;;1.20;0.70;;;;;;;6.88;66.80;101260.47;6359312;28;20187;-73
2021/11/12 01:03:02;;;;;;;0.60;0.60;;;;;;;6.94;65.08;101267.84;6357894;28;20445;-72
2021/11/12 01:06:07;;;;;;;0.70;0.70;;;;;;;6.92;65.23;101272.63;6358227;28;20223;-72
2021/11/12 01:09:17;;;;;;;0.80;0.80;;;;;;;6.99;65.06;101279.00;6359100;28;20182;-72
2021/11/12 01:12:21;;;;;;;0.70;0.70;;;;;;;7.03;64.79;101283.06;6357645;28;20489;-73
2021/11/12 01:15:26;;;;;;;0.50;0.50;;;;;;;7.01;64.51;101287.78;6358971;28;20210;-73
2021/11/12 01:18:34;;;;;;;0.60;0.60;;;;;;;6.88;65.37;101287.59;6358291;28;20186;-73
2021/11/12 01:21:38;;;;;;;0.70;0.70;;;;;;;6.96;65.33;101295.63;6358428;28;20190;-73
2021/11/12 01:24:45;;;;;;;0.70;0.70;;;;;;;6.94;65.07;101303.13;6358396;28;20186;-73
2021/11/12 01:27:52;;;;;;;0.77;0.60;;;;;;;6.86;65.58;101311.31;6357309;28;20276;-73
2021/11/12 01:30:57;;;;;;;1.07;0.70;;;;;;;6.98;65.57;101320.75;6357213;28;20182;-73
2021/11/12 01:34:07;;;;;;;0.67;0.60;;;;;;;6.89;66.35;101322.66;6358063;28;20186;-73
2021/11/12 01:37:15;;;;;;;0.60;0.60;;;;;;;6.87;66.81;101335.56;6357054;28;20234;-74
2021/11/12 01:40:22;;;;;;;0.60;0.60;;;;;;;6.87;66.43;101335.56;6358382;28;20183;-73
2021/11/12 01:43:29;;;;;;;0.57;0.57;;;;;;;6.98;66.35;101331.59;6358038;28;20182;-73
2021/11/12 01:46:46;;;;;;;0.60;0.60;;;;;;;6.91;66.54;101336.88;6353793;28;20191;-73
2021/11/12 01:49:51;;;;;;;0.50;0.50;;;;;;;7.02;66.17;101349.19;6341156;28;20246;-73
2021/11/12 01:53:03;;;;;;;0.70;0.70;;;;;;;6.92;65.77;101346.72;6339752;28;20190;-74
2021/11/12 01:59:31;;;;;;;0.50;0.50;;;;;;;6.92;65.58;101354.00;6340311;28;20213;-74
2021/11/12 02:02:36;;;;;;;0.57;0.57;;;;;;;7.01;64.91;101349.38;6340749;28;20183;-73
2021/11/12 02:05:40;;;;;;;0.70;0.70;;;;;;;6.93;65.12;101361.13;6339443;28;20195;-73
2021/11/12 02:08:44;;;;;;;0.63;0.63;;;;;;;6.77;65.59;101359.38;6340479;28;20182;-73
2021/11/12 02:11:53;;;;;;;0.90;0.63;;;;;;;6.87;65.37;101373.53;6340691;28;20183;-73
2021/11/12 02:14:59;;;;;;;0.73;0.73;;;;;;;6.83;66.01;101374.09;6339265;28;20183;-73
2021/11/12 02:18:12;;;;;;;2.90;0.80;;;;;;;6.81;65.71;101373.41;6339462;28;20206;-73
2021/11/12 02:21:25;;;;;;;0.50;0.50;;;;;;;6.80;65.83;101388.00;6339172;28;20377;-73
2021/11/12 02:24:30;;;;;;;0.50;0.50;;;;;;;6.81;65.90;101389.69;6340406;28;20242;-73
2021/11/12 02:27:39;;;;;;;0.67;0.67;;;;;;;6.80;65.80;101388.00;6340252;28;20196;-73
2021/11/12 02:30:48;;;;;;;0.87;0.77;;;;;;;6.76;65.86;101390.22;6339393;28;20183;-73
2021/11/12 02:33:53;;;;;;;0.77;0.77;;;;;;;6.70;65.59;101409.09;6339846;28;20186;-73
2021/11/12 02:37:01;;;;;;;0.67;0.67;;;;;;;6.62;66.48;101395.56;6339167;28;20241;-73
2021/11/12 02:40:07;;;;;;;0.40;0.40;;;;;;;6.66;66.23;101403.16;6339723;28;20202;-73
2021/11/12 02:43:12;;;;;;;0.57;0.57;;;;;;;6.74;65.84;101404.97;6338572;28;20472;-73
2021/11/12 02:46:20;;;;;;;0.57;0.57;;;;;;;6.69;66.48;101407.38;6339912;28;20252;-73
2021/11/12 02:49:24;;;;;;;0.60;0.60;;;;;;;6.64;66.41;101415.22;6338352;28;20469;-73
2021/11/12 02:52:30;;;;;;;0.60;0.60;;;;;;;6.72;66.28;101412.47;6339431;28;20190;-74
2021/11/12 02:55:35;;;;;;;0.63;0.63;;;;;;;6.47;66.37;101419.03;6339366;28;20192;-74
2021/11/12 02:58:40;;;;;;;0.60;0.60;;;;;;;6.72;66.30;101423.31;6337469;28;20283;-74
2021/11/12 03:01:47;;;;;;;0.70;0.70;;;;;;;6.70;66.17;101428.06;6338191;28;20185;-74
2021/11/12 03:04:54;;;;;;;0.77;0.77;;;;;;;6.62;67.04;101428.09;6337995;28;20383;-73
2021/11/12 03:07:59;;;;;;;0.40;0.40;;;;;;;6.67;66.91;101436.56;6339102;28;20196;-74
2021/11/12 03:11:05;;;;;;;1.80;0.77;;;;;;;6.56;66.68;101434.22;6339352;28;20193;-73
2021/11/12 03:14:11;;;;;;;0.50;0.50;;;;;;;6.56;67.15;101428.81;6338283;28;20220;-73
2021/11/12 03:17:16;;;;;;;0.70;0.70;;;;;;;6.61;66.85;101437.25;6338778;28;20213;-73
2021/11/12 03:20:20;;;;;;;0.60;0.60;;;;;;;6.68;66.79;101449.91;6338048;28;20238;-73
2021/11/12 03:23:30;;;;;;;0.50;0.50;;;;;;;6.69;66.12;101456.19;6338955;28;20185;-73
2021/11/12 03:26:39;;;;;;;0.60;0.60;;;;;;;6.62;65.96;101461.50;6338647;28;20190;-73
2021/11/12 03:47:11;;;;;;;0.60;0.60;;;;;;;6.50;65.94;101499.97;6338787;28;20189;-73
2021/11/12 04:00:35;;;;;;;1.13;0.90;;;;;;;6.47;66.83;101520.16;6338002;28;20184;-74
2021/11/12 04:03:50;;;;;;;0.90;0.90;;;;;;;6.47;66.45;101527.47;6336896;28;20382;-74
2021/11/12 04:07:00;;;;;;;0.60;0.60;;;;;;;6.48;66.61;101529.13;6337198;28;20199;-74
2021/11/12 05:11:13;;;;;;;0.73;0.63;;;;;;;6.32;67.73;101605.09;6336973;28;20218;-74
2021/11/12 05:34:48;;;;;;;0.77;0.77;;;;;;;6.22;68.75;101600.66;6340151;28;20396;-74
2021/11/12 05:44:42;;;;;;;0.83;0.83;;;;;;;6.14;70.17;101618.78;6315571;28;20192;-74
2021/11/12 05:51:23;;;;;;;0.70;0.70;;;;;;;6.12;70.23;101616.25;6314745;28;20184;-74
2021/11/12 05:57:51;;;;;;;0.70;0.70;;;;;;;6.19;69.66;101638.94;6314475;28;20539;-74
2021/11/12 06:00:55;;;;;;;0.80;0.80;;;;;;;6.04;69.86;101640.63;6314912;28;20249;-74
2021/11/12 06:04:00;;;;;;;0.70;0.70;;;;;;;6.09;70.16;101643.69;6315430;28;20257;-74
2021/11/12 06:07:06;;;;;;;0.73;0.73;;;;;;;5.98;71.16;101638.59;6315215;28;20192;-74
2021/11/12 06:10:12;;;;;;;2.67;0.70;;;;;;;5.93;71.87;101649.06;6315178;28;20189;-74
2021/11/12 06:13:17;;;;;;;0.80;0.80;;;;;;;6.01;71.13;101646.38;6315097;28;20224;-73
2021/11/12 06:16:22;;;;;;;0.70;0.70;;;;;;;6.03;71.22;101649.78;6315461;28;20196;-73
2021/11/12 06:19:26;;;;;;;0.60;0.60;;;;;;;6.04;70.82;101648.75;6314928;28;20211;-73
2021/11/12 06:22:30;;;;;;;1.40;0.70;;;;;;;6.12;70.66;101658.75;6315227;28;20264;-73
2021/11/12 06:25:36;;;;;;;0.73;0.73;;;;;;;6.19;70.89;101660.63;6314956;28;20193;-73
2021/11/12 06:28:41;;;;;;;0.63;0.63;;;;;;;5.97;72.24;101663.13;6315095;28;20191;-73
2021/11/12 06:31:46;;;;;;;0.70;0.70;;;;;;;6.05;71.79;101661.28;6314250;28;20194;-73
2021/11/12 06:34:51;;;;;;;1.07;0.53;;;;;;;6.12;70.91;101659.59;6314585;28;20214;-73
2021/11/12 06:37:56;;;;;;;0.67;0.67;;;;;;;6.01;71.58;101657.22;6339894;28;20261;-73
2021/11/12 06:41:07;;;;;;;0.70;0.70;;;;;;;6.01;71.25;101664.50;6338631;28;20229;-72
2021/11/12 06:44:28;;;;;;;0.70;0.70;;;;;;;6.06;71.50;101665.69;6339453;28;20238;-73
2021/11/12 06:50:56;;;;;;;0.80;0.80;;;;;;;5.92;71.94;101679.91;6338484;28;20193;-73
2021/11/12 06:54:01;;;;;;;4.10;0.80;;;;;;;5.82;73.09;101673.75;6339340;28;20254;-73
2021/11/12 06:57:07;;;;;;;0.80;0.80;;;;;;;5.81;73.03;101682.03;6338519;28;20417;-73
2021/11/12 07:00:15;;;;;;;0.80;0.73;;;;;;;5.92;71.93;101679.03;6339127;28;20221;-73
2021/11/12 07:03:19;;;;;;;0.80;0.80;;;;;;;6.04;71.46;101683.97;6339145;28;20189;-74
2021/11/12 07:06:25;;;;;;;4.37;0.70;;;;;;;6.02;71.26;101696.84;6337784;28;20536;-74
2021/11/12 07:09:30;;;;;;;2.63;0.87;;;;;;;5.89;71.90;101696.47;6338842;28;20190;-74
2021/11/12 07:12:36;;;;;;;0.57;0.57;;;;;;;6.10;71.24;101686.03;6337750;28;20215;-74
2021/11/12 07:15:40;;;;;;;0.60;0.60;;;;;;;5.99;71.45;101691.75;6337350;28;20184;-73
2021/11/12 07:18:45;;;;;;;0.83;0.80;;;;;;;5.98;71.27;101690.06;6338364;28;20209;-73
2021/11/12 07:21:49;;;;;;;3.60;1.00;;;;;;;6.11;70.43;101706.66;6338824;28;20252;-73
2021/11/12 07:24:53;;;;;;;1.37;0.87;;;;;;;5.92;70.74;101716.97;6337565;28;20488;-74
2021/11/12 07:27:59;;;;;;;4.27;0.90;;;;;;;6.02;70.92;101718.50;6338561;28;20186;-75
2021/11/12 07:31:04;;;;;;;0.90;0.90;;;;;;;6.03;71.09;101724.78;6338212;28;20221;-74
2021/11/12 07:34:08;;;;;;;0.80;0.80;;;;;;;5.97;71.77;101736.28;6336517;28;20580;-74
2021/11/12 07:37:13;;;;;;;4.33;0.77;;;;;;;5.97;71.46;101737.13;6338340;28;20244;-74
2021/11/12 07:40:24;;;;;;;4.40;0.80;;;;;;;5.86;72.49;101739.28;6337465;28;20214;-74
2021/11/12 07:47:02;;;;;;;1.30;0.60;;;;;;;5.93;72.09;101746.56;6290285;28;20202;-74
2021/11/12 07:50:09;;;;;;;1.77;1.07;;;;;;;6.02;72.06;101759.16;6336920;28;20363;-74
2021/11/12 07:53:14;;;;;;;5.50;0.90;;;;;;;5.86;72.80;101756.38;6337692;28;20186;-74
2021/11/12 07:56:18;;;;;;;4.60;0.80;;;;;;;6.02;71.91;101767.28;6336735;28;20185;-74
2021/11/12 07:59:24;;;;;;;0.70;0.63;;;;;;;6.01;72.45;101781.81;6337775;28;20213;-74
2021/11/12 08:02:28;;;;;;;0.67;0.67;;;;;;;5.94;72.81;101763.69;6336631;28;20217;-74
2021/11/12 08:05:38;;;;;;;4.57;0.70;;;;;;;6.07;72.49;101766.78;6337234;28;20231;-75
2021/11/12 08:08:49;;;;;;;5.93;0.80;;;;;;;6.16;71.89;101769.34;6337547;28;20186;-74
2021/11/12 08:11:56;;;;;;;4.67;0.77;;;;;;;6.06;71.91;101776.75;6337492;28;20187;-75
2021/11/12 08:15:17;;;;;;;2.20;0.70;;;;;;;6.04;72.06;101781.50;6336491;28;20519;-75
2021/11/12 08:18:35;;;;;;;2.63;0.70;;;;;;;6.12;71.90;101781.53;6337621;28;20191;-74
2021/11/12 08:21:43;;;;;;;2.30;0.80;;;;;;;6.14;71.59;101776.78;6336640;28;20183;-74
2021/11/12 08:24:52;;;;;;;0.70;0.70;;;;;;;6.07;72.61;101781.19;6336183;28;20465;-74
2021/11/12 08:28:12;;;;;;;0.63;0.63;;;;;;;6.01;73.01;101776.41;6337079;28;20190;-74
2021/11/12 08:31:27;;;;;;;1.40;1.30;;;;;;;6.01;72.10;101783.72;6337506;28;20196;-74
2021/11/12 08:34:38;;;;;;;1.77;0.60;;;;;;;6.12;72.63;101786.09;6336056;28;20253;-75
2021/11/12 08:37:52;;;;;;;1.23;0.57;;;;;;;6.16;71.71;101784.75;6336005;28;20525;-74
2021/11/12 08:41:05;;;;;;;0.83;0.60;;;;;;;6.16;71.17;101787.47;6337430;28;20214;-75
2021/11/12 08:44:21;;;;;;;0.70;0.70;;;;;;;6.31;70.29;101799.38;6335935;28;20390;-73
2021/11/12 08:47:29;;;;;;;4.13;0.80;;;;;;;6.26;71.00;101791.75;6336581;28;20186;-73
2021/11/12 08:50:34;;;;;;;0.67;0.67;;;;;;;6.26;71.67;101797.16;6336924;28;20221;-73
2021/11/12 08:53:41;;;;;;;7.97;1.00;;;;;;;6.41;70.34;101810.06;6336251;28;20217;-74
2021/11/12 08:56:45;;;;;;;0.60;0.60;;;;;;;6.34;71.20;101809.88;6336205;28;20214;-75
2021/11/12 08:59:52;;;;;;;3.37;0.80;;;;;;;6.37;70.50;101806.00;6342353;28;20249;-74
2021/11/12 09:02:58;;;;;;;0.70;0.67;;;;;;;6.38;70.57;101821.22;6342214;28;20194;-74
2021/11/12 09:06:04;;;;;;;0.70;0.70;;;;;;;6.40;70.18;101821.91;6341943;28;20250;-74
2021/11/12 09:09:09;;;;;;;6.93;0.90;;;;;;;6.39;70.20;101822.94;6342084;28;20300;-74
2021/11/12 09:12:15;;;;;;;0.70;0.70;;;;;;;6.39;70.69;101828.34;6342156;28;20192;-74
2021/11/12 09:15:24;;;;;;;0.70;0.67;;;;;;;6.55;69.54;101828.41;6340530;28;20497;-74
2021/11/12 09:18:30;;;;;;;1.53;1.37;;;;;;;6.56;69.12;101830.06;6340956;28;20209;-74
2021/11/12 09:21:35;;;;;;;4.43;0.60;;;;;;;6.48;70.05;101843.59;6340473;28;20209;-74
2021/11/12 09:24:45;;;;;;;1.03;0.70;;;;;;;6.47;70.68;101847.34;6341473;28;20193;-75
2021/11/12 09:27:51;;;;;;;1.90;0.73;;;;;;;6.44;70.12;101853.09;6340399;28;20545;-74
2021/11/12 09:30:55;;;;;;;1.30;0.60;;;;;;;6.48;68.74;101849.88;6340394;28;20416;-74
2021/11/12 09:34:04;;;;;;;0.57;0.57;;;;;;;6.49;68.93;101845.31;6341575;28;20220;-74
2021/11/12 09:37:11;;;;;;;2.00;0.53;;;;;;;6.55;67.76;101844.66;6340453;28;20229;-74
2021/11/12 09:40:15;;;;;;;0.60;0.60;;;;;;;6.61;66.96;101841.25;6341134;28;20206;-74
2021/11/12 09:43:20;;;;;;;0.60;0.60;;;;;;;6.66;66.11;101847.03;6341285;28;20217;-74
2021/11/12 09:46:25;;;;;;;0.90;0.90;;;;;;;6.72;65.02;101851.78;6341201;28;20218;-74
2021/11/12 09:49:30;;;;;;;0.60;0.60;;;;;;;6.70;65.42;101848.41;6340857;28;20236;-74
2021/11/12 09:52:35;;;;;;;0.80;0.80;;;;;;;6.82;65.68;101847.06;6339645;28;20236;-74
2021/11/12 09:55:41;;;;;;;0.97;0.63;;;;;;;6.84;65.79;101850.44;6339849;28;20182;-74
2021/11/12 09:58:48;;;;;;;1.37;0.80;;;;;;;6.94;65.32;101846.56;6340971;28;20193;-73
2021/11/12 10:01:52;;;;;;;0.60;0.60;;;;;;;6.79;66.78;101853.66;6339444;28;20451;-73
2021/11/12 10:04:58;;;;;;;0.60;0.60;;;;;;;6.82;66.98;101868.75;6340308;28;20224;-73
2021/11/12 10:08:17;;;;;;;4.13;0.70;;;;;;;6.87;67.25;101861.81;6339063;28;20249;-73
2021/11/12 10:11:25;;;;;;;2.00;0.70;;;;;;;6.94;66.22;101861.97;6340676;28;20187;-73
2021/11/12 10:14:37;;;;;;;5.90;1.53;;;;;;;7.02;65.88;101864.72;6339398;28;20190;-73
2021/11/12 10:17:43;;;;;;;1.40;0.70;;;;;;;7.03;65.56;101871.84;6340179;28;20186;-73
2021/11/12 10:21:00;;;;;;;0.70;0.70;;;;;;;7.01;64.89;101868.41;6339928;28;20214;-73
2021/11/12 10:24:07;;;;;;;1.07;0.70;;;;;;;7.13;64.17;101861.66;6338951;28;20474;-74
2021/11/12 10:27:14;;;;;;;0.60;0.60;;;;;;;7.04;64.26;101862.66;6340238;28;20246;-73
2021/11/12 10:30:21;;;;;;;0.60;0.60;;;;;;;7.16;64.55;101865.91;6338900;28;20412;-73
2021/11/12 10:33:37;;;;;;;2.10;0.70;;;;;;;7.09;64.08;101868.44;6339617;28;20205;-73
2021/11/12 10:37:00;;;;;;;0.70;0.70;;;;;;;7.03;62.84;101877.25;6338965;28;20297;-73
2021/11/12 10:40:14;;;;;;;2.07;0.83;;;;;;;7.11;63.70;101874.56;6338512;28;20505;-74
2021/11/12 10:43:22;;;;;;;1.60;0.80;;;;;;;7.07;62.86;101878.59;6338419;28;20415;-74
2021/11/12 10:46:37;;;;;;;0.80;0.80;;;;;;;7.10;63.06;101886.41;6339813;28;20194;-73
2021/11/12 10:49:42;;;;;;;1.95;0.85;;;;;;;7.20;62.69;101884.38;6339187;28;20218;-74
2021/11/12 10:52:51;;;;;;;5.47;0.60;;;;;;;7.22;62.93;101893.19;6338214;28;20520;-74
2021/11/12 10:55:57;;;;;;;1.00;0.70;;;;;;;7.25;62.75;101895.56;6339366;28;20259;-73
2021/11/12 10:59:07;;;;;;;0.67;0.67;;;;;;;7.22;62.54;101898.63;6339327;28;20245;-73
2021/11/12 11:02:20;;;;;;;0.70;0.70;;;;;;;7.26;62.33;101894.56;6337837;28;20281;-74
2021/11/12 11:05:42;;;;;;;0.60;0.60;;;;;;;7.32;63.40;101893.88;6337788;28;20236;-73
2021/11/12 11:08:52;;;;;;;1.45;0.90;;;;;;;7.49;63.32;101902.88;6338598;28;20183;-73
2021/11/12 11:11:56;;;;;;;0.80;0.80;;;;;;;7.50;63.68;101896.41;6337436;28;20420;-73
2021/11/12 11:15:25;;;;;;;3.30;0.60;;;;;;;7.46;64.33;101901.34;6338579;28;20191;-73
2021/11/12 11:18:32;;;;;;;1.60;0.80;;;;;;;7.48;64.46;101899.31;6338384;28;20204;-73
2021/11/12 11:21:36;;;;;;;2.08;0.90;;;;;;;7.46;63.46;101916.78;6337784;28;20210;-73
2021/11/12 11:24:41;;;;;;;0.60;0.60;;;;;;;7.51;63.48;101915.25;6338559;28;20183;-73
2021/11/12 11:27:47;;;;;;;1.37;0.90;;;;;;;7.52;63.75;101916.94;6337295;28;20243;-73
2021/11/12 11:30:51;;;;;;;0.82;0.82;;;;;;;7.53;63.28;101902.34;6337977;28;20190;-74
2021/11/12 11:33:56;;;;;;;1.65;0.90;;;;;;;7.50;63.01;101904.53;6338280;28;20228;-74
2021/11/12 11:37:03;;;;;;;2.03;0.90;;;;;;;7.60;63.02;101904.38;6337205;28;20294;-74
2021/11/12 11:40:15;;;;;;;1.33;0.70;;;;;;;7.46;62.24;101895.91;6338619;28;20183;-74
2021/11/12 11:43:20;;;;;;;0.70;0.70;;;;;;;7.48;62.77;101899.31;6338019;28;20206;-74
2021/11/12 11:46:26;;;;;;;2.30;0.80;;;;;;;7.61;63.68;101908.78;6338416;28;20193;-74
2021/11/12 11:49:32;;;;;;;2.53;1.00;;;;;;;7.50;63.72;101901.84;6338352;28;20295;-74
2021/11/12 11:52:36;;;;;;;4.57;1.10;;;;;;;7.63;63.14;101898.63;6337672;28;20224;-74
2021/11/12 11:55:42;;;;;;;0.90;0.90;;;;;;;7.69;62.92;101908.78;6337265;28;20265;-74
2021/11/12 11:58:47;;;;;;;0.85;0.85;;;;;;;7.65;62.50;101899.28;6337681;28;20183;-74
2021/11/12 12:01:53;;;;;;;0.80;0.80;;;;;;;7.62;62.70;101910.50;6336628;28;20397;-74
2021/11/12 12:04:59;;;;;;;4.03;0.90;;;;;;;7.60;63.47;101912.53;6337492;28;20261;-74
2021/11/12 12:08:27;;;;;;;2.60;1.00;;;;;;;7.64;63.48;101905.72;6337899;28;20231;-74
2021/11/12 12:11:36;;;;;;;2.08;1.10;;;;;;;7.70;63.94;101910.47;6336866;28;20186;-73
2021/11/12 12:14:40;;;;;;;3.30;1.13;;;;;;;7.62;64.94;101907.78;6337553;28;20264;-74
2021/11/12 12:17:46;;;;;;;4.97;0.55;;;;;;;7.61;64.09;101906.91;6337656;28;20186;-74
2021/11/12 12:21:23;;;;;;;0.80;0.75;;;;;;;7.64;64.02;101911.16;6337754;28;20183;-74
2021/11/12 12:32:27;;;;;;;2.65;0.93;;;;;;;7.65;63.75;101927.31;6337059;28;20191;-74
2021/11/12 13:21:17;;;;;;;7.97;0.80;;;;;;;7.49;64.92;101933.59;6335537;28;20245;-74
2021/11/12 13:24:31;;;;;;;1.10;0.90;;;;;;;7.45;64.01;101940.38;6336456;28;20218;-73
2021/11/12 13:27:36;;;;;;;7.63;1.10;;;;;;;7.50;63.94;101935.28;6335429;28;20517;-74
2021/11/12 13:30:43;;;;;;;4.87;1.40;;;;;;;7.47;65.28;101930.19;6336964;28;20222;-74
2021/11/12 13:33:50;;;;;;;0.90;0.90;;;;;;;7.48;63.73;101933.75;6336542;28;20250;-74
2021/11/12 13:36:56;;;;;;;1.20;0.82;;;;;;;7.48;63.98;101941.91;6336382;28;20341;-73
2021/11/12 13:40:07;;;;;;;1.30;0.80;;;;;;;7.49;64.67;101944.47;6335594;28;20265;-74
2021/11/12 13:43:24;;;;;;;4.25;0.80;;;;;;;7.51;64.33;101950.56;6336440;28;20274;-74
2021/11/12 13:46:28;;;;;;;0.80;0.80;;;;;;;7.34;65.26;101948.88;6341462;28;20221;-73
2021/11/12 13:49:34;;;;;;;3.45;0.80;;;;;;;7.42;65.38;101951.56;6341248;28;20189;-74
2021/11/12 13:52:43;;;;;;;0.90;0.90;;;;;;;7.31;67.23;101962.78;6339684;28;20500;-74
2021/11/12 13:55:47;;;;;;;2.40;0.90;;;;;;;7.17;68.06;101966.16;6340781;28;20183;-74
2021/11/12 13:59:05;;;;;;;1.33;0.88;;;;;;;7.18;67.75;101957.00;6341077;28;20215;-74
2021/11/12 14:02:09;;;;;;;1.13;1.13;;;;;;;7.05;67.94;101967.50;6340758;28;20217;-74
2021/11/12 14:05:15;;;;;;;4.47;1.05;;;;;;;6.93;68.54;101974.25;6340236;28;20309;-74
2021/11/12 14:08:21;;;;;;;1.10;1.00;;;;;;;6.91;68.23;101970.84;6340465;28;20209;-74
2021/11/12 14:11:28;;;;;;;3.92;1.10;;;;;;;6.99;69.31;101975.44;6340511;28;20194;-74
2021/11/12 14:14:34;;;;;;;0.88;0.88;;;;;;;6.89;69.45;101978.28;6340576;28;20218;-73
2021/11/12 14:17:50;;;;;;;4.10;1.00;;;;;;;6.87;70.06;101970.34;6340148;28;20186;-74
2021/11/12 14:21:09;;;;;;;2.00;1.10;;;;;;;6.84;69.69;101969.81;6340470;28;20268;-74
2021/11/12 14:28:03;;;;;;;0.80;0.80;;;;;;;6.94;70.30;101981.38;6320103;28;20290;-74
2021/11/12 14:31:16;;;;;;;1.50;1.10;;;;;;;6.87;70.69;101985.75;6339103;28;20218;-74
2021/11/12 14:34:33;;;;;;;4.07;0.97;;;;;;;6.81;70.92;101986.41;6339917;28;20190;-73
2021/11/12 14:37:55;;;;;;;4.07;0.90;;;;;;;6.79;70.63;101988.44;6339508;28;20234;-74
2021/11/12 14:44:38;;;;;;;1.00;1.00;;;;;;;6.74;71.61;101990.81;6338997;28;20207;-74
2021/11/12 14:47:55;;;;;;;0.90;0.90;;;;;;;6.61;71.18;102001.25;6339920;28;20194;-74
2021/11/12 14:51:03;;;;;;;5.53;1.10;;;;;;;6.60;72.16;101988.72;6338502;28;20472;-74
2021/11/12 14:54:10;;;;;;;0.97;0.93;;;;;;;6.61;71.96;101995.84;6338347;28;20417;-74
2021/11/12 14:57:26;;;;;;;1.20;1.10;;;;;;;6.65;72.23;101975.53;6339764;28;20250;-74
2021/11/12 15:00:30;;;;;;;9.33;1.10;;;;;;;6.68;71.90;101986.03;6338894;28;20214;-74
2021/11/12 15:03:35;;;;;;;5.07;1.43;;;;;;;6.63;72.19;101988.38;6339187;28;20209;-73
2021/11/12 15:06:41;;;;;;;7.43;1.00;;;;;;;6.58;72.03;101979.88;6337945;28;20429;-74
2021/11/12 15:09:48;;;;;;;1.30;1.30;;;;;;;6.60;71.90;101967.03;6337804;28;20357;-74
2021/11/12 15:12:53;;;;;;;5.20;1.40;;;;;;;6.57;72.10;101983.63;6338962;28;20186;-74
2021/11/12 15:16:01;;;;;;;2.80;1.10;;;;;;;6.65;72.13;101986.38;6337645;28;20466;-73
2021/11/12 15:19:09;;;;;;;8.13;1.20;;;;;;;6.63;72.34;102004.66;6338331;28;20183;-73
2021/11/12 15:22:26;;;;;;;3.20;1.10;;;;;;;6.52;73.09;102002.25;6337861;28;20191;-73
2021/11/12 15:25:36;;;;;;;1.00;1.00;;;;;;;6.49;73.10;102002.56;6338722;28;20241;-73
2021/11/12 15:28:56;;;;;;;6.50;1.10;;;;;;;6.49;72.75;102002.56;6338520;28;20276;-73
2021/11/12 15:32:06;;;;;;;1.20;1.20;;;;;;;6.40;73.14;101998.09;6337541;28;20478;-73
2021/11/12 15:35:12;;;;;;;5.27;1.03;;;;;;;6.40;73.04;102004.38;6337270;28;20246;-74
2021/11/12 15:38:19;;;;;;;1.10;1.10;;;;;;;6.41;73.14;101999.81;6338344;28;20183;-73
2021/11/12 15:41:47;;;;;;;1.20;1.10;;;;;;;6.36;73.39;102002.16;6338744;28;20193;-75
2021/11/12 15:44:55;;;;;;;1.03;1.00;;;;;;;6.32;73.94;101995.38;6337851;28;20242;-74
2021/11/12 15:48:07;;;;;;;6.93;1.20;;;;;;;6.27;74.04;102007.53;6338060;28;20221;-73
2021/11/12 15:51:34;;;;;;;9.03;5.27;;;;;;;6.27;74.35;102002.09;6338333;28;20186;-73
2021/11/12 15:54:53;;;;;;;5.93;3.07;;;;;;;6.25;74.26;102001.44;6337022;28;20191;-73
2021/11/12 16:02:01;;;;;;;7.73;2.47;;;;;;;6.12;74.71;102003.72;6210992;28;20273;-74
2021/11/12 16:18:58;;;;;;;3.57;2.43;;;;;;;5.79;76.63;102020.72;6317380;28;20420;-74
2021/11/12 16:22:26;;;;;;;4.17;2.50;;;;;;;5.78;76.12;102019.00;6337487;28;20185;-72
2021/11/12 16:25:31;;;;;;;3.87;2.50;;;;;;;5.79;76.76;102020.72;6337698;28;20277;-75
2021/11/12 16:28:48;;;;;;;2.60;2.50;;;;;;;5.68;76.95;102031.78;6336486;28;20419;-74
2021/11/12 16:31:52;;;;;;;9.03;2.27;;;;;;;5.73;76.96;102031.34;6336066;28;20209;-74
2021/11/12 16:34:59;;;;;;;2.53;2.27;;;;;;;5.73;77.44;102037.59;6337521;28;20203;-75
2021/11/12 16:38:08;;;;;;;5.57;2.20;;;;;;;5.71;77.33;102039.59;6336686;28;20190;-74
2021/11/12 16:41:14;;;;;;;3.13;2.20;;;;;;;5.63;77.24;102032.25;6337398;28;20186;-74
2021/11/12 16:44:23;;;;;;;5.40;2.40;;;;;;;5.70;76.95;102033.34;6336594;28;20505;-73
2021/11/12 16:54:20;;;;;;;2.30;2.20;;;;;;;5.63;76.83;102043.09;6335458;28;20206;-73
2021/11/12 16:57:42;;;;;;;2.40;2.20;;;;;;;5.63;77.54;102050.34;6336162;28;20186;-73
2021/11/12 17:04:26;;;;;;;30.70;13.93;;;;;;;5.62;77.26;102062.22;6335309;28;20214;-74
2021/11/12 17:07:46;;;;;;;10.80;4.07;;;;;;;5.57;77.70;102059.13;6336994;28;20217;-74
2021/11/12 17:11:04;;;;;;;5.00;3.00;;;;;;;5.63;77.32;102062.06;6336818;28;20228;-74
2021/11/12 17:14:24;;;;;;;19.47;3.00;;;;;;;5.47;77.99;102070.00;6337087;28;20235;-75
2021/11/12 17:17:44;;;;;;;18.20;3.07;;;;;;;5.54;77.25;102072.97;6335810;28;20478;-74
2021/11/12 17:45:15;;;;;;;8.93;2.30;;;;;;;5.48;77.91;102082.56;6341118;28;20242;-74
2021/11/12 17:48:23;;;;;;;3.80;2.27;;;;;;;5.37;78.01;102084.59;6341325;28;20232;-74
2021/11/12 18:02:01;;;;;;;7.43;2.30;;;;;;;5.27;79.29;102095.50;6341428;28;20255;-74
2021/11/12 18:05:27;;;;;;;10.03;2.40;;;;;;;5.30;78.79;102088.94;6340660;28;20217;-74
2021/11/12 21:45:14;;;;;;;20.67;6.63;;;;;;;4.52;84.04;102179.50;6341590;28;20252;-75
2021/11/12 21:48:20;;;;;;;15.43;6.53;;;;;;;4.53;84.76;102181.22;6341112;28;20189;-72
2021/11/12 21:51:28;;;;;;;12.33;6.23;;;;;;;4.54;84.16;102177.53;6341432;28;20184;-72
2021/11/12 21:54:32;;;;;;;8.70;5.40;;;;;;;4.62;83.57;102174.97;6341306;28;20247;-73
2021/11/12 21:57:36;;;;;;;10.60;5.60;;;;;;;4.50;84.10;102186.91;6339921;28;20479;-73
2021/11/12 22:00:41;;;;;;;12.10;5.23;;;;;;;4.48;84.67;102175.41;6341146;28;20186;-73
2021/11/12 22:03:45;;;;;;;27.30;5.70;;;;;;;4.58;83.77;102173.53;6340103;28;20338;-74
2021/11/12 22:06:51;;;;;;;13.60;5.20;;;;;;;4.43;84.92;102180.41;6339547;28;20534;-74
2021/11/12 22:09:56;;;;;;;7.43;4.93;;;;;;;4.52;84.56;102179.50;6340641;28;20184;-74
2021/11/12 22:13:00;;;;;;;6.17;4.33;;;;;;;4.52;84.10;102189.50;6340860;28;20252;-74
2021/11/12 22:16:05;;;;;;;20.47;5.07;;;;;;;4.43;84.16;102202.03;6340878;28;20188;-74
2021/11/12 22:19:09;;;;;;;9.03;5.00;;;;;;;4.57;84.24;102198.84;6339371;28;20531;-74
2021/11/12 22:22:15;;;;;;;11.33;4.17;;;;;;;4.59;84.42;102202.28;6340273;28;20184;-74
2021/11/12 22:25:20;;;;;;;13.97;4.10;;;;;;;4.51;85.60;102204.84;6340682;28;20220;-73
2021/11/12 22:28:25;;;;;;;11.53;5.00;;;;;;;4.52;84.54;102203.84;6340131;28;20245;-74
2021/11/12 22:31:29;;;;;;;7.50;4.33;;;;;;;4.51;85.56;102204.84;6340464;28;20192;-74
2021/11/12 22:34:34;;;;;;;7.23;4.00;;;;;;;4.48;85.28;102213.25;6338924;28;20199;-74
2021/11/12 22:37:40;;;;;;;13.63;4.50;;;;;;;4.60;84.80;102209.38;6339591;28;20265;-74
2021/11/12 22:40:46;;;;;;;5.50;4.60;;;;;;;4.62;84.10;102215.53;6340074;28;20247;-74
2021/11/12 22:43:59;;;;;;;6.33;4.70;;;;;;;4.66;83.55;102219.63;6339650;28;20279;-74
2021/11/12 22:47:04;;;;;;;13.43;4.90;;;;;;;4.75;83.62;102224.16;6340058;28;20211;-74
2021/11/12 22:50:10;;;;;;;15.10;4.47;;;;;;;4.63;84.02;102225.31;6340176;28;20185;-74
2021/11/12 22:53:18;;;;;;;12.57;5.10;;;;;;;4.60;84.23;102220.19;6338919;28;20241;-73